createdAt,value
2018-07-17T00:02:38.429Z,5.85
2018-07-17T00:08:07.684Z,7.72
2018-07-17T00:13:37.622Z,5.33
2018-07-17T00:19:06.921Z,10.43
2018-07-17T00:24:36.215Z,11.10
2018-07-17T00:30:05.565Z,17.17
2018-07-17T00:35:35.047Z,9.40
2018-07-17T00:41:04.309Z,8.23
2018-07-17T00:46:33.537Z,10.20
2018-07-17T00:52:02.889Z,9.90
2018-07-17T00:57:31.961Z,10.30
2018-07-17T01:03:09.106Z,7.67
2018-07-17T01:08:44.050Z,8.28
2018-07-17T01:14:31.519Z,9.13
2018-07-17T01:20:00.856Z,8.88
2018-07-17T01:25:30.077Z,11.93
2018-07-17T01:30:59.321Z,7.85
2018-07-17T01:36:30.774Z,7.65
2018-07-17T01:42:00.815Z,15.08
2018-07-17T01:47:29.744Z,8.70
2018-07-17T01:52:59.051Z,10.68
2018-07-17T01:58:28.273Z,7.87
2018-07-17T02:03:57.557Z,9.68
2018-07-17T02:09:26.901Z,9.60
2018-07-17T02:14:56.130Z,9.45
2018-07-17T02:20:27.449Z,8.00
2018-07-17T02:25:56.673Z,9.20
2018-07-17T02:31:26.949Z,10.48
2018-07-17T02:36:56.208Z,8.83
2018-07-17T02:42:25.469Z,11.40
2018-07-17T02:47:54.666Z,8.97
2018-07-17T02:53:23.997Z,9.58
2018-07-17T02:59:01.317Z,9.95
2018-07-17T03:04:32.318Z,13.95
2018-07-17T03:10:01.600Z,9.33
2018-07-17T03:15:30.965Z,9.33
2018-07-17T03:21:00.209Z,7.90
2018-07-17T03:26:29.466Z,7.60
2018-07-17T03:31:58.705Z,16.00
2018-07-17T03:37:27.999Z,11.30
2018-07-17T03:42:57.250Z,7.58
2018-07-17T03:48:26.394Z,10.00
2018-07-17T03:53:55.727Z,7.80
2018-07-17T03:59:25.063Z,7.45
2018-07-17T04:04:54.303Z,8.98
2018-07-17T04:10:23.711Z,10.18
2018-07-17T04:15:53.105Z,9.07
2018-07-17T04:21:22.437Z,15.32
2018-07-17T04:26:52.084Z,9.77
2018-07-17T04:32:21.485Z,8.55
2018-07-17T04:37:50.801Z,8.45
2018-07-17T04:43:20.151Z,10.70
2018-07-17T04:48:49.635Z,9.93
2018-07-17T04:54:19.261Z,8.18
2018-07-17T04:59:48.584Z,6.72
2018-07-17T05:05:17.899Z,7.97
2018-07-17T05:10:47.323Z,7.55
2018-07-17T05:16:16.718Z,8.08
2018-07-17T05:21:46.041Z,7.08
2018-07-17T05:27:17.569Z,8.78
2018-07-17T05:32:46.800Z,7.58
2018-07-17T05:38:16.397Z,7.12
2018-07-17T05:43:45.668Z,5.97
2018-07-17T05:49:16.268Z,6.65
2018-07-17T05:54:45.672Z,6.70
2018-07-17T06:00:14.908Z,8.58
2018-07-17T06:05:44.125Z,6.53
2018-07-17T06:11:13.372Z,8.43
2018-07-17T06:16:42.588Z,6.80
2018-07-17T06:22:11.887Z,7.72
2018-07-17T06:27:41.181Z,9.60
2018-07-17T06:33:10.413Z,11.53
2018-07-17T06:38:39.604Z,9.60
2018-07-17T06:44:08.893Z,9.40
2018-07-17T06:49:39.253Z,15.38
2018-07-17T06:55:08.501Z,9.08
2018-07-17T07:00:38.458Z,13.87
2018-07-17T07:06:07.703Z,7.03
2018-07-17T07:11:37.163Z,7.13
2018-07-17T07:17:06.630Z,7.55
2018-07-17T07:22:35.838Z,5.33
2018-07-17T07:28:05.110Z,8.53
2018-07-17T07:33:34.348Z,6.07
2018-07-17T07:39:04.092Z,8.45
2018-07-17T07:44:34.288Z,9.33
2018-07-17T07:50:03.614Z,4.50
2018-07-17T07:55:33.491Z,8.33
2018-07-17T08:01:02.698Z,5.65
2018-07-17T08:06:32.198Z,7.93
2018-07-17T08:12:02.084Z,9.60
2018-07-17T08:17:31.309Z,6.60
2018-07-17T08:23:00.530Z,5.58
2018-07-17T08:28:33.655Z,5.10
2018-07-17T08:34:02.882Z,5.60
2018-07-17T08:39:35.062Z,6.10
2018-07-17T08:45:04.425Z,5.62
2018-07-17T08:50:33.718Z,4.60
2018-07-17T08:56:03.011Z,5.10
2018-07-17T09:01:31.980Z,3.43
2018-07-17T09:07:01.224Z,4.12
2018-07-17T09:12:30.442Z,4.43
2018-07-17T09:18:00.052Z,3.70
2018-07-17T09:23:29.332Z,5.97
2018-07-17T09:28:58.590Z,8.45
2018-07-17T09:34:27.939Z,8.13
2018-07-17T09:39:57.165Z,4.03
2018-07-17T09:45:26.582Z,4.17
2018-07-17T09:50:55.853Z,4.70
2018-07-17T09:56:25.134Z,4.23
2018-07-17T10:01:59.508Z,3.90
2018-07-17T10:07:29.673Z,4.03
2018-07-17T10:12:58.919Z,3.60
2018-07-17T10:18:28.185Z,4.83
2018-07-17T10:23:57.363Z,2.83
2018-07-17T10:29:26.577Z,3.00
2018-07-17T10:34:55.783Z,3.20
2018-07-17T10:40:25.051Z,4.10
2018-07-17T10:45:54.423Z,4.13
2018-07-17T10:51:23.757Z,3.23
2018-07-17T10:56:53.073Z,4.60
2018-07-17T11:02:22.405Z,2.97
2018-07-17T11:07:51.683Z,4.23
2018-07-17T11:13:21.095Z,3.63
2018-07-17T11:18:50.463Z,4.15
2018-07-17T11:24:19.789Z,4.57
2018-07-17T11:29:49.168Z,4.12
2018-07-17T11:35:18.454Z,4.53
2018-07-17T11:40:47.724Z,4.05
2018-07-17T11:46:17.043Z,6.83
2018-07-17T11:51:46.340Z,4.63
2018-07-17T11:57:15.613Z,7.33
2018-07-17T12:02:44.880Z,3.98
2018-07-17T12:08:14.098Z,3.47
2018-07-17T12:13:43.287Z,2.67
2018-07-17T12:19:12.513Z,6.00
2018-07-17T12:24:41.725Z,3.17
2018-07-17T12:30:11.009Z,3.73
2018-07-17T12:35:40.172Z,4.17
2018-07-17T12:41:09.511Z,2.90
2018-07-17T12:46:38.818Z,5.75
2018-07-17T12:52:08.074Z,4.23
2018-07-17T12:57:37.311Z,4.90
2018-07-17T13:03:08.657Z,4.90
2018-07-17T13:08:37.877Z,3.30
2018-07-17T13:14:07.163Z,5.43
2018-07-17T13:19:36.411Z,2.62
2018-07-17T13:25:07.057Z,1.80
2018-07-17T13:30:36.376Z,5.28
2018-07-17T13:36:05.603Z,3.63
2018-07-17T13:41:34.824Z,1.90
2018-07-17T13:47:04.106Z,5.80
2018-07-17T13:52:33.382Z,2.60
2018-07-17T13:58:02.669Z,5.70
2018-07-17T14:03:31.893Z,3.03
2018-07-17T14:09:01.109Z,5.23
2018-07-17T14:14:32.418Z,2.00
2018-07-17T14:20:01.763Z,2.47
2018-07-17T14:25:31.040Z,2.27
2018-07-17T14:31:00.237Z,3.97
2018-07-17T14:36:29.450Z,4.58
2018-07-17T14:41:58.675Z,4.00
2018-07-17T14:47:27.595Z,3.20
2018-07-17T14:52:56.846Z,3.20
2018-07-17T14:58:26.103Z,3.00
2018-07-17T15:03:55.303Z,3.45
2018-07-17T15:09:24.574Z,5.33
2018-07-17T15:14:53.827Z,5.87
2018-07-17T15:20:23.109Z,5.95
2018-07-17T15:25:53.399Z,4.57
2018-07-17T15:31:22.659Z,7.08
2018-07-17T15:36:51.979Z,7.67
2018-07-17T15:42:21.388Z,3.58
2018-07-17T15:47:50.709Z,7.05
2018-07-17T15:53:19.992Z,3.22
2018-07-17T15:58:49.321Z,2.08
2018-07-17T16:04:18.834Z,1.90
2018-07-17T16:09:48.251Z,2.85
2018-07-17T16:15:17.589Z,3.10
2018-07-17T16:20:46.948Z,4.23
2018-07-17T16:26:16.251Z,3.22
2018-07-17T16:31:45.563Z,2.60
2018-07-17T16:37:14.799Z,4.45
2018-07-17T16:42:44.011Z,6.10
2018-07-17T16:48:13.244Z,4.00
2018-07-17T16:53:42.519Z,4.42
2018-07-17T16:59:12.156Z,3.70
2018-07-17T17:04:41.089Z,5.20
2018-07-17T17:10:10.382Z,3.05
2018-07-17T17:15:39.656Z,2.70
2018-07-17T17:21:08.910Z,2.90
2018-07-17T17:26:38.151Z,3.90
2018-07-17T17:32:07.491Z,3.20
2018-07-17T17:37:36.774Z,2.30
2018-07-17T17:43:07.486Z,2.20
2018-07-17T17:48:36.777Z,6.60
2018-07-17T17:54:07.053Z,6.03
2018-07-17T17:59:39.164Z,4.47
2018-07-17T18:05:08.598Z,6.10
2018-07-17T18:10:37.787Z,3.62
2018-07-17T18:16:06.803Z,2.92
2018-07-17T18:21:36.094Z,4.42
2018-07-17T18:27:05.375Z,3.40
2018-07-17T18:32:34.793Z,3.35
2018-07-17T18:38:04.073Z,5.85
2018-07-17T18:43:37.087Z,3.37
2018-07-17T18:49:06.507Z,5.60
2018-07-17T18:54:36.896Z,5.42
2018-07-17T19:00:07.116Z,3.58
2018-07-17T19:05:36.935Z,4.58
2018-07-17T19:11:06.494Z,3.22
2018-07-17T19:16:40.396Z,4.20
2018-07-17T19:22:14.898Z,3.50
2018-07-17T19:27:47.558Z,4.47
2018-07-17T19:33:17.473Z,3.20
2018-07-17T19:38:46.814Z,3.42
2018-07-17T19:44:22.693Z,3.37
2018-07-17T19:49:52.009Z,3.92
2018-07-17T19:55:27.666Z,5.42
2018-07-17T20:00:56.970Z,3.40
2018-07-17T20:06:26.304Z,4.58
2018-07-17T20:11:55.676Z,5.08
2018-07-17T20:17:25.010Z,8.55
2018-07-17T20:22:54.543Z,5.05
2018-07-17T20:28:23.905Z,4.28
2018-07-17T20:33:55.172Z,3.33
2018-07-17T20:39:29.542Z,4.70
2018-07-17T20:44:58.783Z,3.62
2018-07-17T20:50:27.993Z,5.03
2018-07-17T20:55:57.301Z,3.40
2018-07-17T21:01:26.716Z,3.85
2018-07-17T21:06:58.319Z,6.40
2018-07-17T21:12:27.615Z,3.40
2018-07-17T21:17:57.165Z,3.95
2018-07-17T21:23:26.659Z,4.70
2018-07-17T21:28:55.994Z,3.95
2018-07-17T21:34:25.180Z,5.58
2018-07-17T21:39:54.586Z,6.03
2018-07-17T21:45:23.914Z,2.95
2018-07-17T21:50:53.310Z,3.85
2018-07-17T21:56:22.562Z,3.67
2018-07-17T22:01:53.370Z,3.85
2018-07-17T22:07:23.418Z,3.83
2018-07-17T22:12:54.010Z,3.00
2018-07-17T22:18:25.318Z,2.87
2018-07-17T22:23:55.967Z,3.12
2018-07-17T22:29:26.079Z,5.30
2018-07-17T22:34:56.039Z,5.60
2018-07-17T22:40:26.140Z,3.22
2018-07-17T22:45:56.394Z,2.62
2018-07-17T22:51:26.396Z,3.72
2018-07-17T22:56:56.521Z,3.45
2018-07-17T23:02:26.658Z,3.70
2018-07-17T23:07:57.036Z,3.72
2018-07-17T23:13:28.622Z,3.90
2018-07-17T23:18:58.149Z,4.42
2018-07-17T23:24:27.658Z,3.25
2018-07-17T23:29:57.033Z,4.22
2018-07-17T23:35:26.486Z,4.00
2018-07-17T23:40:55.886Z,3.30
2018-07-17T23:46:25.273Z,4.00
2018-07-17T23:51:54.669Z,8.18
2018-07-17T23:57:24.709Z,3.60
